Time;durP1;ratioP1;P1;durP2;ratioP2;P2;SDS_P1;SDS_P2;PMS_P1;PMS_P2;Temp;Humidity;BMP_temperature;BMP_pressure;BME280_temperature;BME280_humidity;BME280_pressure;Samples;Min_cycle;Max_cycle;Signal;HPM_P1;HPM_P2
2022/10/12 00:00:49;;;;;;;30.30;16.33;;;5.90;99.90;;;;;;5051074;28;20047;-64
2022/10/12 00:03:16;;;;;;;29.42;15.93;;;6.20;99.90;;;;;;5058220;28;20044;-64
2022/10/12 00:05:41;;;;;;;36.80;16.70;;;6.80;99.90;;;;;;5058957;28;20067;-64
2022/10/12 00:08:07;;;;;;;24.10;12.00;;;6.80;99.90;;;;;;5035182;28;20123;-64
2022/10/12 00:10:33;;;;;;;33.50;17.38;;;5.90;99.90;;;;;;5081308;28;20093;-64
2022/10/12 00:12:59;;;;;;;36.22;17.92;;;5.90;99.90;;;;;;5033291;28;20047;-64
2022/10/12 00:15:25;;;;;;;29.92;15.77;;;6.50;99.90;;;;;;5058760;28;20529;-64
2022/10/12 00:17:52;;;;;;;37.78;18.88;;;6.10;99.90;;;;;;5059205;28;20040;-64
2022/10/12 00:20:18;;;;;;;29.55;16.25;;;5.90;99.90;;;;;;5059166;28;20064;-64
2022/10/12 00:22:44;;;;;;;35.70;17.90;;;5.90;99.90;;;;;;5059956;28;20905;-64
2022/10/12 00:25:09;;;;;;;28.42;15.55;;;6.40;99.90;;;;;;5057773;28;20036;-64
2022/10/12 00:27:35;;;;;;;45.38;21.13;;;6.30;99.90;;;;;;5033581;28;20024;-64
2022/10/12 00:30:01;;;;;;;31.63;17.90;;;6.10;99.90;;;;;;5036828;28;20075;-65
2022/10/12 00:32:26;;;;;;;31.48;19.10;;;6.40;99.90;;;;;;5058221;28;20402;-64
2022/10/12 00:34:52;;;;;;;34.33;19.65;;;6.60;99.90;;;;;;5058559;28;20259;-64
2022/10/12 00:37:18;;;;;;;30.88;18.90;;;6.70;99.90;;;;;;5058544;28;20631;-64
2022/10/12 00:39:43;;;;;;;36.10;21.10;;;6.20;99.90;;;;;;5032747;28;20406;-65
2022/10/12 00:42:11;;;;;;;34.97;20.23;;;6.30;99.90;;;;;;5015608;28;20390;-66
2022/10/12 00:44:42;;;;;;;26.13;17.35;;;6.80;99.90;;;;;;5058799;28;20130;-64
2022/10/12 00:47:26;;;;;;;35.88;20.80;;;6.40;99.90;;;;;;5032877;28;20469;-65
2022/10/12 00:50:10;;;;;;;37.55;20.05;;;6.70;99.90;;;;;;5058509;28;20079;-66
2022/10/12 00:52:57;;;;;;;37.40;20.38;;;6.60;99.90;;;;;;5036764;28;21555;-64
2022/10/12 00:55:25;;;;;;;27.80;16.33;;;5.90;99.90;;;;;;5058031;28;20044;-65
2022/10/12 00:57:53;;;;;;;38.78;22.17;;;6.00;99.90;;;;;;5058682;28;20394;-64
2022/10/12 01:00:20;;;;;;;37.05;20.08;;;6.10;99.90;;;;;;5032022;28;20733;-65
2022/10/12 01:02:49;;;;;;;31.52;18.15;;;6.30;99.90;;;;;;5058060;28;20639;-65
2022/10/12 01:05:16;;;;;;;37.28;21.65;;;6.20;99.90;;;;;;5034435;28;20282;-65
2022/10/12 01:07:42;;;;;;;34.28;19.25;;;5.70;99.90;;;;;;5058515;28;20344;-64
2022/10/12 01:10:08;;;;;;;32.92;19.65;;;5.60;99.90;;;;;;5058477;28;20045;-65
2022/10/12 01:12:34;;;;;;;39.95;25.73;;;6.00;99.90;;;;;;5040850;28;20044;-65
2022/10/12 01:15:00;;;;;;;34.30;21.60;;;5.50;99.90;;;;;;5041001;28;20040;-66
2022/10/12 01:17:31;;;;;;;43.00;24.17;;;5.60;99.90;;;;;;5040179;28;20052;-65
2022/10/12 01:20:06;;;;;;;44.70;28.00;;;6.00;99.90;;;;;;5056644;28;20042;-65
2022/10/12 01:22:40;;;;;;;51.50;31.23;;;6.00;99.90;;;;;;5047144;28;20044;-65
2022/10/12 01:25:37;;;;;;;46.22;26.05;;;5.50;99.90;;;;;;5057138;28;20230;-66
2022/10/12 01:28:23;;;;;;;33.33;17.20;;;5.50;99.90;;;;;;5030644;28;20373;-65
2022/10/12 01:31:09;;;;;;;42.08;27.30;;;5.80;99.90;;;;;;5014168;28;20055;-64
2022/10/12 01:33:44;;;;;;;34.58;23.83;;;5.70;99.90;;;;;;5040634;28;20052;-65
2022/10/12 01:36:16;;;;;;;31.25;20.35;;;5.30;99.90;;;;;;5056574;28;20040;-64
2022/10/12 01:38:58;;;;;;;32.58;22.45;;;6.20;99.90;;;;;;5056682;28;20040;-65
2022/10/12 01:41:35;;;;;;;37.60;24.10;;;5.30;99.90;;;;;;5057916;28;20112;-64
2022/10/12 01:44:01;;;;;;;39.78;26.63;;;6.30;99.90;;;;;;5045040;28;20288;-65
2022/10/12 01:46:27;;;;;;;28.98;21.15;;;5.50;99.90;;;;;;5036380;28;20084;-64
2022/10/12 01:49:01;;;;;;;33.97;20.10;;;5.40;99.90;;;;;;5053224;28;20099;-64
2022/10/12 01:51:57;;;;;;;37.22;22.98;;;6.20;99.90;;;;;;5053384;28;20071;-64
2022/10/12 01:54:42;;;;;;;32.17;20.55;;;5.40;99.90;;;;;;5030476;28;20044;-64
2022/10/12 01:57:16;;;;;;;33.70;19.90;;;6.10;99.90;;;;;;5046493;28;20052;-64
2022/10/12 02:00:06;;;;;;;37.03;22.27;;;5.50;99.90;;;;;;5054053;28;20036;-64
2022/10/12 02:02:44;;;;;;;31.02;21.67;;;5.80;99.90;;;;;;5043908;28;20102;-64
2022/10/12 02:05:31;;;;;;;31.10;20.73;;;5.80;99.90;;;;;;5036540;28;20287;-64
2022/10/12 02:08:17;;;;;;;36.70;21.25;;;5.50;99.90;;;;;;5030581;28;20349;-65
2022/10/12 02:10:52;;;;;;;35.90;20.67;;;5.70;99.90;;;;;;5027336;28;20036;-64
2022/10/12 02:13:19;;;;;;;38.13;21.33;;;6.10;99.90;;;;;;5069818;28;20040;-65
2022/10/12 02:15:47;;;;;;;37.95;21.90;;;5.30;99.90;;;;;;5052961;28;20040;-66
2022/10/12 02:18:17;;;;;;;40.92;22.02;;;5.30;99.90;;;;;;5037544;28;20391;-64
2022/10/12 02:20:46;;;;;;;36.95;23.23;;;5.20;99.90;;;;;;5027657;28;20124;-64
2022/10/12 02:23:13;;;;;;;38.78;22.35;;;5.40;99.90;;;;;;5035626;28;20071;-64
2022/10/12 02:25:40;;;;;;;43.20;24.20;;;5.20;99.90;;;;;;5036356;28;20555;-64
2022/10/12 02:28:12;;;;;;;44.40;25.60;;;5.00;99.90;;;;;;5052140;28;20522;-65
2022/10/12 02:30:47;;;;;;;41.53;22.92;;;5.70;99.90;;;;;;5052636;28;20110;-64
2022/10/12 02:33:34;;;;;;;37.58;23.92;;;5.30;99.90;;;;;;5053928;28;20123;-64
2022/10/12 02:36:06;;;;;;;37.05;23.00;;;6.00;99.90;;;;;;5071902;28;20048;-63
2022/10/12 02:38:46;;;;;;;33.60;22.03;;;5.50;99.90;;;;;;5036726;28;20040;-63
2022/10/12 02:41:18;;;;;;;28.27;20.88;;;5.40;99.90;;;;;;5036453;28;20537;-64
2022/10/12 02:43:59;;;;;;;37.15;25.73;;;5.10;99.90;;;;;;5056964;28;20170;-64
2022/10/12 02:46:26;;;;;;;43.47;26.00;;;5.90;99.90;;;;;;5057497;28;20036;-65
2022/10/12 02:48:53;;;;;;;36.38;25.23;;;5.10;99.90;;;;;;5057271;28;20367;-63
2022/10/12 02:51:20;;;;;;;43.65;26.92;;;5.20;99.90;;;;;;5055533;28;20416;-64
2022/10/12 02:53:46;;;;;;;40.95;27.40;;;5.40;99.90;;;;;;5040272;28;20534;-65
2022/10/12 02:56:14;;;;;;;46.15;27.73;;;5.20;99.90;;;;;;5039265;28;20036;-64
2022/10/12 02:58:43;;;;;;;33.60;23.92;;;5.40;99.90;;;;;;5053711;28;20044;-64
2022/10/12 03:01:09;;;;;;;40.75;24.00;;;5.60;99.90;;;;;;5058056;28;20097;-64
2022/10/12 03:03:34;;;;;;;44.72;29.48;;;5.30;99.90;;;;;;5078722;28;20052;-65
2022/10/12 03:06:00;;;;;;;40.72;28.08;;;6.10;99.90;;;;;;5085973;28;20044;-65
2022/10/12 03:08:26;;;;;;;32.75;26.02;;;5.60;99.90;;;;;;5059507;28;20135;-65
2022/10/12 03:10:51;;;;;;;33.90;24.67;;;5.40;99.90;;;;;;5085466;28;20351;-65
2022/10/12 03:13:18;;;;;;;34.10;24.58;;;5.30;99.90;;;;;;5043255;28;20055;-64
2022/10/12 03:15:43;;;;;;;38.78;25.65;;;5.40;99.90;;;;;;5043071;28;20055;-65
2022/10/12 03:18:09;;;;;;;41.20;27.27;;;5.50;99.90;;;;;;5086782;28;20040;-64
2022/10/12 03:20:35;;;;;;;31.60;24.25;;;5.90;99.90;;;;;;5061036;28;20372;-65
2022/10/12 03:23:01;;;;;;;37.42;25.83;;;6.20;99.90;;;;;;5035324;28;20408;-66
2022/10/12 03:25:26;;;;;;;39.17;26.95;;;5.40;99.90;;;;;;5038351;28;20040;-64
2022/10/12 03:27:52;;;;;;;30.15;23.00;;;6.10;99.90;;;;;;5034287;28;20078;-64
2022/10/12 03:30:18;;;;;;;33.60;21.85;;;5.40;99.90;;;;;;5042736;28;20498;-64
2022/10/12 03:32:43;;;;;;;29.48;22.42;;;6.20;99.90;;;;;;5059766;28;20036;-65
2022/10/12 03:35:09;;;;;;;33.35;22.08;;;6.30;99.90;;;;;;5054208;28;20067;-64
2022/10/12 03:37:35;;;;;;;27.38;19.65;;;5.50;99.90;;;;;;5033610;28;20044;-64
2022/10/12 03:40:01;;;;;;;36.25;23.73;;;6.30;99.90;;;;;;5017343;28;20101;-64
2022/10/12 03:42:27;;;;;;;32.17;21.13;;;5.70;99.90;;;;;;5016903;28;20032;-64
2022/10/12 03:44:52;;;;;;;33.90;22.58;;;6.50;99.90;;;;;;5025962;28;20052;-64
2022/10/12 03:47:18;;;;;;;28.30;21.35;;;6.00;99.90;;;;;;5059701;28;20052;-64
2022/10/12 03:49:43;;;;;;;34.80;23.95;;;6.30;99.90;;;;;;5034473;28;20098;-64
2022/10/12 03:52:09;;;;;;;36.53;23.30;;;5.60;99.90;;;;;;5033333;28;20211;-64
2022/10/12 03:54:35;;;;;;;37.45;23.60;;;5.80;99.90;;;;;;5025427;28;20196;-63
2022/10/12 03:57:00;;;;;;;35.25;22.55;;;6.20;99.90;;;;;;5059383;28;20464;-64
2022/10/12 03:59:26;;;;;;;27.70;20.60;;;6.20;99.90;;;;;;5043640;28;20093;-64
2022/10/12 04:01:52;;;;;;;31.50;18.77;;;6.00;99.90;;;;;;5042927;28;20486;-65
2022/10/12 04:04:17;;;;;;;33.13;18.67;;;6.00;99.90;;;;;;5058668;28;20893;-65
2022/10/12 04:06:43;;;;;;;29.83;19.02;;;6.20;99.90;;;;;;5043257;28;20044;-64
2022/10/12 04:09:09;;;;;;;27.42;20.20;;;6.20;99.90;;;;;;5042857;28;20043;-65
2022/10/12 04:11:34;;;;;;;36.30;23.52;;;6.50;99.90;;;;;;5032219;28;20035;-65
2022/10/12 04:14:00;;;;;;;39.72;21.95;;;6.00;99.90;;;;;;5066459;28;20040;-65
2022/10/12 04:16:26;;;;;;;29.60;19.38;;;6.40;99.90;;;;;;5057176;28;20047;-64
2022/10/12 04:18:52;;;;;;;36.33;20.23;;;5.90;99.90;;;;;;5036448;28;20051;-66
2022/10/12 04:21:19;;;;;;;36.33;20.30;;;6.70;99.90;;;;;;5040894;28;20486;-64
2022/10/12 04:23:45;;;;;;;32.83;19.17;;;6.30;99.90;;;;;;5058689;28;20064;-66
2022/10/12 04:26:10;;;;;;;26.50;16.63;;;6.50;99.90;;;;;;5033541;28;20127;-64
2022/10/12 04:28:36;;;;;;;24.50;17.13;;;6.00;99.90;;;;;;5033851;28;20044;-64
2022/10/12 04:31:02;;;;;;;27.33;17.85;;;6.50;99.90;;;;;;5057957;28;20063;-67
2022/10/12 04:33:27;;;;;;;25.88;15.57;;;6.70;99.90;;;;;;5052380;28;20105;-65
2022/10/12 04:35:53;;;;;;;31.77;20.20;;;5.90;99.90;;;;;;5033471;28;20044;-64
2022/10/12 04:38:19;;;;;;;28.50;18.23;;;5.90;99.90;;;;;;5043028;28;20039;-64
2022/10/12 04:40:46;;;;;;;26.33;16.40;;;6.20;99.90;;;;;;5013347;28;20079;-65
2022/10/12 04:43:12;;;;;;;23.40;15.25;;;6.50;99.90;;;;;;5057396;28;20044;-64
2022/10/12 04:45:38;;;;;;;22.83;16.33;;;6.70;99.90;;;;;;5017550;28;20098;-65
2022/10/12 04:48:03;;;;;;;26.05;15.40;;;6.00;99.90;;;;;;5059688;28;20642;-65
2022/10/12 04:50:29;;;;;;;24.83;14.52;;;6.70;99.90;;;;;;5056073;28;20827;-65
2022/10/12 04:52:55;;;;;;;20.88;11.65;;;6.10;99.90;;;;;;5041316;28;20055;-65
2022/10/12 04:55:20;;;;;;;26.30;13.23;;;6.00;99.90;;;;;;5076285;28;20071;-65
2022/10/12 04:57:46;;;;;;;24.33;12.43;;;6.50;99.90;;;;;;5057722;28;20043;-66
2022/10/12 05:00:12;;;;;;;19.98;11.45;;;6.70;99.90;;;;;;5057658;28;20472;-65
2022/10/12 05:02:37;;;;;;;21.52;12.88;;;6.60;99.90;;;;;;5017004;28;20298;-65
2022/10/12 05:05:03;;;;;;;23.52;13.57;;;6.30;99.90;;;;;;5056047;28;20497;-66
2022/10/12 05:07:29;;;;;;;22.30;12.43;;;6.80;99.90;;;;;;5057997;28;20048;-65
2022/10/12 05:09:55;;;;;;;18.80;12.02;;;6.80;99.90;;;;;;5058916;28;20093;-65
2022/10/12 05:12:20;;;;;;;25.23;12.38;;;6.60;99.90;;;;;;5018008;28;20051;-64
2022/10/12 05:14:46;;;;;;;29.13;12.80;;;6.30;99.90;;;;;;5058121;28;20059;-65
2022/10/12 05:17:12;;;;;;;23.17;12.82;;;6.80;99.90;;;;;;5015144;28;20051;-64
2022/10/12 05:19:37;;;;;;;25.45;13.35;;;6.10;99.90;;;;;;5032841;28;20536;-64
2022/10/12 05:22:03;;;;;;;30.45;13.73;;;6.30;99.90;;;;;;5056802;28;20036;-64
2022/10/12 05:24:28;;;;;;;24.33;12.13;;;5.90;99.90;;;;;;5045142;28;20075;-65
2022/10/12 05:26:55;;;;;;;26.55;12.13;;;6.70;99.90;;;;;;5062819;28;20374;-64
2022/10/12 05:29:21;;;;;;;27.80;12.63;;;6.70;99.90;;;;;;5035042;28;20059;-66
2022/10/12 05:31:47;;;;;;;24.45;13.93;;;5.90;99.90;;;;;;5056092;28;20043;-63
2022/10/12 05:34:12;;;;;;;32.40;13.30;;;6.00;99.90;;;;;;5064329;28;20047;-64
2022/10/12 05:36:38;;;;;;;30.80;13.95;;;6.60;99.90;;;;;;5021107;28;20046;-66
2022/10/12 05:39:04;;;;;;;32.97;15.18;;;5.90;99.90;;;;;;5061761;28;20490;-64
2022/10/12 05:41:29;;;;;;;36.03;13.82;;;6.40;99.90;;;;;;5088924;28;20051;-65
2022/10/12 05:43:55;;;;;;;32.13;15.75;;;5.70;99.90;;;;;;5062738;28;20028;-63
2022/10/12 05:46:21;;;;;;;26.92;15.43;;;6.10;99.90;;;;;;5063287;28;20217;-63
2022/10/12 05:48:47;;;;;;;39.67;16.08;;;5.70;99.90;;;;;;5065577;28;20100;-63
2022/10/12 05:51:13;;;;;;;37.40;15.60;;;5.90;99.90;;;;;;5064513;28;20710;-65
2022/10/12 05:53:38;;;;;;;37.35;16.75;;;5.70;99.90;;;;;;5064220;28;20060;-64
2022/10/12 05:56:04;;;;;;;33.05;17.60;;;5.70;99.90;;;;;;5081388;28;20044;-63
2022/10/12 05:58:30;;;;;;;28.23;16.30;;;6.00;99.90;;;;;;5063009;28;20436;-64
2022/10/12 06:01:05;;;;;;;34.20;16.52;;;6.20;99.90;;;;;;5089402;28;20040;-64
2022/10/12 06:03:31;;;;;;;35.58;17.15;;;6.10;99.90;;;;;;5063391;28;20079;-64
2022/10/12 06:05:56;;;;;;;37.88;18.10;;;6.00;99.90;;;;;;5087347;28;20123;-65
2022/10/12 06:08:22;;;;;;;37.10;17.23;;;6.20;99.90;;;;;;5088322;28;20047;-64
2022/10/12 06:10:50;;;;;;;33.45;17.75;;;5.50;99.90;;;;;;5046469;28;20040;-65
2022/10/12 06:13:18;;;;;;;35.78;18.27;;;5.60;99.90;;;;;;5052580;28;20497;-63
2022/10/12 06:15:45;;;;;;;41.05;19.02;;;6.00;99.90;;;;;;5058554;28;20048;-63
2022/10/12 06:18:12;;;;;;;43.67;20.35;;;5.60;99.90;;;;;;5036907;28;20041;-63
2022/10/12 06:20:38;;;;;;;42.92;20.15;;;6.10;99.90;;;;;;5030835;28;20036;-63
2022/10/12 06:23:03;;;;;;;38.53;20.30;;;6.20;99.90;;;;;;5046372;28;20097;-65
2022/10/12 06:25:29;;;;;;;48.47;19.55;;;6.20;99.90;;;;;;5021022;28;20396;-62
2022/10/12 06:27:55;;;;;;;41.13;20.95;;;5.80;99.90;;;;;;5065290;28;20118;-63
2022/10/12 06:30:20;;;;;;;47.63;21.17;;;5.60;99.90;;;;;;5035548;28;20050;-65
2022/10/12 06:32:46;;;;;;;40.90;22.35;;;6.40;99.90;;;;;;5045229;28;20048;-63
2022/10/12 06:35:11;;;;;;;42.22;20.95;;;6.50;99.90;;;;;;5039475;28;20547;-65
2022/10/12 06:37:37;;;;;;;46.90;19.48;;;6.50;99.90;;;;;;5061480;28;20038;-63
2022/10/12 06:40:04;;;;;;;40.58;20.75;;;6.30;99.90;;;;;;5079965;28;20055;-65
2022/10/12 06:42:30;;;;;;;35.80;21.90;;;6.20;99.90;;;;;;5035158;28;20052;-64
2022/10/12 06:44:56;;;;;;;36.90;21.45;;;6.50;99.90;;;;;;5060982;28;20126;-64
2022/10/12 06:47:21;;;;;;;35.20;20.13;;;6.70;99.90;;;;;;5047968;28;20067;-63
2022/10/12 06:49:47;;;;;;;35.67;20.88;;;6.60;99.90;;;;;;5036936;28;20058;-63
2022/10/12 06:52:13;;;;;;;40.53;20.58;;;6.80;99.90;;;;;;5063603;28;20048;-65
2022/10/12 06:54:40;;;;;;;35.72;20.85;;;6.70;99.90;;;;;;5063279;28;20048;-63
2022/10/12 06:57:06;;;;;;;31.67;19.60;;;6.00;99.90;;;;;;5039693;28;20082;-63
2022/10/12 06:59:31;;;;;;;33.25;19.48;;;7.00;99.90;;;;;;5062826;28;20040;-63
2022/10/12 07:01:57;;;;;;;31.05;17.52;;;6.90;99.90;;;;;;5079450;28;20263;-64
2022/10/12 07:04:23;;;;;;;31.50;18.17;;;6.30;99.90;;;;;;5036224;28;20047;-63
2022/10/12 07:06:48;;;;;;;30.90;17.38;;;6.40;99.90;;;;;;5062366;28;20048;-65
2022/10/12 07:09:15;;;;;;;28.52;15.38;;;6.70;99.90;;;;;;5062288;28;20039;-65
2022/10/12 07:11:42;;;;;;;26.83;14.60;;;7.20;99.90;;;;;;5062861;28;20048;-64
2022/10/12 07:14:08;;;;;;;26.42;14.25;;;7.20;99.90;;;;;;5046114;28;20127;-63
2022/10/12 07:16:33;;;;;;;28.35;13.25;;;6.90;99.90;;;;;;5045449;28;20127;-64
2022/10/12 07:18:59;;;;;;;29.35;13.65;;;7.30;99.90;;;;;;5061956;28;20032;-64
2022/10/12 07:21:25;;;;;;;25.17;14.38;;;6.80;99.90;;;;;;5081565;28;20070;-63
2022/10/12 07:23:51;;;;;;;22.42;12.45;;;7.50;99.90;;;;;;5062556;28;20044;-63
2022/10/12 07:26:17;;;;;;;28.38;12.45;;;7.50;99.90;;;;;;5080551;28;20098;-64
2022/10/12 07:28:42;;;;;;;24.10;11.93;;;7.20;99.90;;;;;;5059180;28;20548;-64
2022/10/12 07:31:09;;;;;;;20.00;11.90;;;7.40;99.90;;;;;;5062887;28;20043;-63
2022/10/12 07:33:37;;;;;;;23.10;11.25;;;7.70;99.90;;;;;;5065401;28;20039;-64
2022/10/12 07:36:03;;;;;;;20.35;10.68;;;7.50;99.90;;;;;;5062095;28;20524;-65
2022/10/12 07:38:29;;;;;;;25.92;11.55;;;7.90;99.90;;;;;;5062326;28;20036;-64
2022/10/12 07:41:01;;;;;;;24.42;10.90;;;7.90;99.90;;;;;;5061854;28;20123;-63
2022/10/12 07:43:28;;;;;;;23.30;11.00;;;7.90;99.90;;;;;;5063900;28;20121;-63
2022/10/12 07:45:54;;;;;;;24.98;10.65;;;8.10;99.90;;;;;;5082516;28;20377;-63
2022/10/12 07:48:21;;;;;;;17.80;10.90;;;8.30;99.90;;;;;;5039580;28;20053;-63
2022/10/12 07:50:47;;;;;;;21.48;10.95;;;8.60;99.90;;;;;;5051315;28;20044;-65
2022/10/12 07:53:13;;;;;;;20.92;10.75;;;8.40;99.90;;;;;;5068310;28;20036;-63
2022/10/12 07:55:38;;;;;;;18.45;9.85;;;8.60;99.90;;;;;;5067939;28;20456;-63
2022/10/12 07:58:04;;;;;;;21.15;9.95;;;8.90;99.90;;;;;;5069300;28;20036;-63
2022/10/12 08:00:31;;;;;;;16.40;9.20;;;9.60;99.90;;;;;;5085743;28;20857;-65
2022/10/12 08:02:57;;;;;;;23.15;8.90;;;9.90;99.90;;;;;;5062744;28;20032;-63
2022/10/12 08:05:23;;;;;;;19.48;8.88;;;10.70;99.90;;;;;;5068283;28;20040;-64
2022/10/12 08:07:50;;;;;;;19.90;8.35;;;11.20;99.90;;;;;;5051588;28;20040;-63
2022/10/12 08:10:17;;;;;;;16.77;7.40;;;11.50;99.90;;;;;;5068609;28;20047;-64
2022/10/12 08:12:44;;;;;;;16.42;7.68;;;11.80;99.90;;;;;;5067883;28;20136;-63
2022/10/12 08:15:10;;;;;;;15.85;7.18;;;12.60;99.90;;;;;;5042605;28;20043;-65
2022/10/12 08:17:36;;;;;;;13.95;7.05;;;13.30;99.90;;;;;;5068759;28;20032;-64
2022/10/12 08:20:02;;;;;;;15.98;6.60;;;13.50;99.90;;;;;;5100980;28;20069;-65
2022/10/12 08:22:28;;;;;;;17.70;6.85;;;13.00;99.90;;;;;;5037783;28;20048;-64
2022/10/12 08:24:54;;;;;;;17.92;6.40;;;12.60;99.90;;;;;;5051898;28;20478;-64
2022/10/12 08:27:19;;;;;;;18.65;7.00;;;12.20;99.90;;;;;;5086138;28;20162;-64
2022/10/12 08:29:46;;;;;;;15.60;6.25;;;11.70;99.90;;;;;;5067972;28;20040;-63
2022/10/12 08:32:11;;;;;;;12.48;6.05;;;11.60;99.90;;;;;;5038841;28;20052;-63
2022/10/12 08:34:37;;;;;;;15.38;6.47;;;12.10;99.90;;;;;;5051294;28;20043;-65
2022/10/12 08:37:03;;;;;;;14.48;5.75;;;12.70;99.90;;;;;;5063774;28;20071;-65
2022/10/12 08:39:29;;;;;;;12.18;5.22;;;13.00;99.90;;;;;;5045020;28;20048;-63
2022/10/12 08:42:07;;;;;;;14.23;5.57;;;13.40;99.90;;;;;;5016483;28;20046;-64
2022/10/12 08:45:00;;;;;;;15.02;5.22;;;13.80;99.90;;;;;;5061874;28;20181;-64
2022/10/12 08:47:50;;;;;;;15.85;5.60;;;14.00;99.90;;;;;;5060922;28;20490;-65
2022/10/12 08:50:47;;;;;;;14.85;5.25;;;14.30;99.90;;;;;;5061480;28;20461;-65
2022/10/12 08:53:21;;;;;;;14.38;4.72;;;14.60;99.90;;;;;;5040389;28;20044;-65
2022/10/12 08:55:47;;;;;;;15.35;5.50;;;14.70;99.90;;;;;;5062107;28;20051;-64
2022/10/12 08:58:19;;;;;;;17.15;5.93;;;14.90;99.90;;;;;;5078971;28;20039;-65
2022/10/12 09:00:56;;;;;;;18.48;4.97;;;15.20;99.90;;;;;;5061952;28;20115;-65
2022/10/12 09:03:39;;;;;;;12.80;4.75;;;15.30;99.90;;;;;;5060925;28;20067;-65
2022/10/12 09:06:11;;;;;;;12.18;5.22;;;15.30;99.90;;;;;;5061889;28;20043;-64
2022/10/12 09:08:46;;;;;;;13.90;4.60;;;15.70;99.90;;;;;;5061237;28;20048;-65
2022/10/12 09:11:26;;;;;;;14.10;5.55;;;15.70;99.90;;;;;;5030670;28;20511;-63
2022/10/12 09:14:01;;;;;;;15.95;5.45;;;15.70;99.90;;;;;;5061837;28;20086;-64
2022/10/12 09:16:31;;;;;;;14.82;4.78;;;15.30;99.90;;;;;;5044609;28;20044;-65
2022/10/12 09:19:20;;;;;;;11.77;4.50;;;15.10;99.90;;;;;;5062130;28;20048;-64
2022/10/12 09:21:48;;;;;;;14.20;4.28;;;14.60;99.90;;;;;;5059933;28;20036;-65
2022/10/12 09:24:25;;;;;;;12.70;4.32;;;14.60;99.90;;;;;;5016625;28;20036;-65
2022/10/12 09:26:56;;;;;;;18.35;5.03;;;14.90;99.90;;;;;;5033216;28;20062;-65
2022/10/12 09:29:30;;;;;;;12.10;4.40;;;14.80;99.90;;;;;;5043184;28;20444;-65
2022/10/12 09:32:14;;;;;;;12.43;4.40;;;15.10;99.90;;;;;;5061925;28;20799;-64
2022/10/12 09:34:41;;;;;;;13.50;4.20;;;15.50;99.90;;;;;;5044277;28;20046;-65
2022/10/12 09:37:36;;;;;;;12.90;4.43;;;15.80;99.90;;;;;;4998283;28;20075;-65
2022/10/12 09:40:02;;;;;;;15.70;4.85;;;16.00;99.90;;;;;;5041579;28;20698;-66
2022/10/12 09:42:28;;;;;;;15.20;4.28;;;15.90;99.90;;;;;;5014817;28;20078;-64
2022/10/12 09:45:01;;;;;;;9.90;4.10;;;15.60;99.90;;;;;;5031586;28;20562;-65
2022/10/12 09:47:30;;;;;;;14.82;4.15;;;15.40;99.90;;;;;;5077980;28;20159;-65
2022/10/12 09:50:05;;;;;;;13.00;4.47;;;15.10;99.90;;;;;;5060942;28;20502;-65
2022/10/12 09:52:43;;;;;;;15.85;4.45;;;14.90;99.90;;;;;;5061117;28;20052;-65
2022/10/12 09:55:13;;;;;;;15.68;4.00;;;14.60;99.90;;;;;;5059837;28;20522;-64
2022/10/12 09:57:41;;;;;;;12.07;4.22;;;14.40;99.90;;;;;;5041764;28;20044;-64
2022/10/12 10:00:28;;;;;;;14.98;4.50;;;14.10;99.90;;;;;;5060051;28;20414;-65
2022/10/12 10:02:55;;;;;;;15.32;4.72;;;14.10;99.90;;;;;;5062467;28;20501;-64
2022/10/12 10:05:35;;;;;;;16.83;4.70;;;14.00;99.90;;;;;;5047822;28;20039;-65
2022/10/12 10:08:13;;;;;;;18.13;3.92;;;13.90;99.90;;;;;;5049560;28;20103;-64
2022/10/12 10:10:56;;;;;;;12.50;4.28;;;14.00;99.90;;;;;;5064416;28;20454;-64
2022/10/12 10:13:25;;;;;;;14.25;4.25;;;14.20;99.90;;;;;;5065301;28;20388;-64
2022/10/12 10:16:04;;;;;;;12.57;4.10;;;14.40;99.90;;;;;;5065627;28;20048;-63
2022/10/12 10:18:42;;;;;;;12.38;4.00;;;15.10;99.90;;;;;;5064300;28;20089;-63
2022/10/12 10:21:10;;;;;;;9.95;3.35;;;16.10;99.90;;;;;;5066074;28;20036;-67
2022/10/12 10:23:48;;;;;;;12.50;3.35;;;16.70;99.90;;;;;;5061357;28;20055;-66
2022/10/12 10:26:16;;;;;;;14.15;3.47;;;16.90;99.90;;;;;;5065972;28;20040;-63
2022/10/12 10:28:44;;;;;;;13.25;3.22;;;17.00;99.90;;;;;;5065408;28;20039;-63
2022/10/12 10:31:23;;;;;;;11.80;3.22;;;17.50;99.90;;;;;;5064423;28;20036;-65
2022/10/12 10:34:17;;;;;;;9.68;2.90;;;17.60;99.90;;;;;;5083379;28;20129;-63
2022/10/12 10:37:04;;;;;;;14.32;2.85;;;18.10;99.90;;;;;;5083057;28;20096;-65
2022/10/12 10:39:51;;;;;;;11.32;2.58;;;18.30;99.90;;;;;;5043622;28;20038;-65
2022/10/12 10:42:36;;;;;;;11.57;2.80;;;18.40;99.90;;;;;;5084068;28;20038;-65
2022/10/12 10:45:27;;;;;;;10.38;2.58;;;18.50;99.90;;;;;;5062369;28;20121;-66
2022/10/12 10:48:50;;;;;;;15.13;3.63;;;18.70;99.90;;;;;;5082268;28;20088;-67
2022/10/12 10:51:16;;;;;;;12.68;2.78;;;18.80;99.90;;;;;;5058867;28;20063;-65
2022/10/12 10:53:47;;;;;;;10.50;2.63;;;19.00;99.90;;;;;;5082988;28;20511;-65
2022/10/12 10:56:21;;;;;;;10.27;2.65;;;19.20;99.90;;;;;;5063630;28;20127;-64
2022/10/12 10:58:58;;;;;;;13.23;3.10;;;19.20;99.90;;;;;;5065591;28;20050;-65
2022/10/12 11:01:50;;;;;;;8.48;2.30;;;19.30;99.90;;;;;;5036618;28;20123;-65
2022/10/12 11:04:36;;;;;;;14.63;2.45;;;19.30;98.30;;;;;;5066427;28;20078;-65
2022/10/12 11:07:18;;;;;;;11.27;2.35;;;19.40;99.90;;;;;;5066105;28;20561;-66
2022/10/12 11:09:48;;;;;;;9.07;1.85;;;19.40;97.50;;;;;;5064737;28;20047;-64
2022/10/12 11:12:20;;;;;;;10.57;1.80;;;19.20;95.70;;;;;;5064796;28;20116;-64
2022/10/12 11:14:50;;;;;;;10.13;1.92;;;19.30;95.60;;;;;;5065506;28;20039;-66
2022/10/12 11:17:31;;;;;;;9.27;1.50;;;19.00;95.20;;;;;;5064337;28;20040;-65
2022/10/12 11:20:34;;;;;;;8.93;1.70;;;19.00;95.00;;;;;;5047494;28;20044;-65
2022/10/12 11:23:23;;;;;;;9.98;1.40;;;19.50;92.10;;;;;;5036920;28;20032;-65
2022/10/12 11:26:07;;;;;;;8.57;1.48;;;20.00;90.10;;;;;;5067910;28;20047;-65
2022/10/12 11:28:35;;;;;;;10.63;1.50;;;20.10;84.30;;;;;;5068690;28;20113;-66
2022/10/12 11:31:01;;;;;;;9.18;1.40;;;19.90;81.00;;;;;;5068050;28;20036;-65
2022/10/12 11:33:37;;;;;;;6.75;1.42;;;19.80;82.40;;;;;;5069075;28;20035;-65
2022/10/12 11:36:06;;;;;;;8.20;1.25;;;19.70;86.50;;;;;;5068414;28;20542;-65
2022/10/12 11:38:39;;;;;;;9.05;1.70;;;20.20;86.40;;;;;;5069478;28;20052;-64
2022/10/12 11:41:11;;;;;;;6.93;1.75;;;20.20;75.40;;;;;;5069382;28;20051;-65
2022/10/12 11:43:59;;;;;;;6.45;1.20;;;20.30;76.50;;;;;;5067982;28;20131;-65
2022/10/12 11:46:45;;;;;;;8.93;1.35;;;19.90;77.60;;;;;;5068539;28;20104;-64
2022/10/12 11:49:33;;;;;;;9.15;1.38;;;19.90;81.20;;;;;;5068560;28;20085;-64
2022/10/12 11:52:04;;;;;;;9.43;1.33;;;20.10;70.50;;;;;;5053157;28;20047;-65
2022/10/12 11:54:48;;;;;;;8.00;1.42;;;19.90;75.10;;;;;;5067039;28;20530;-65
2022/10/12 11:57:26;;;;;;;7.07;1.08;;;19.80;76.80;;;;;;5068621;28;20408;-66
2022/10/12 11:59:57;;;;;;;6.35;1.35;;;19.90;71.50;;;;;;5090659;28;20759;-64
2022/10/12 12:02:26;;;;;;;6.78;1.30;;;20.20;72.30;;;;;;5068044;28;20502;-64
2022/10/12 12:04:52;;;;;;;9.18;1.65;;;20.60;67.40;;;;;;5051554;28;20040;-65
2022/10/12 12:07:39;;;;;;;7.22;1.10;;;20.00;66.10;;;;;;5051147;28;20040;-65
2022/10/12 12:10:34;;;;;;;8.77;1.30;;;20.20;62.30;;;;;;5067514;28;20047;-67
2022/10/12 12:13:17;;;;;;;6.90;1.08;;;20.00;65.70;;;;;;5024312;28;20640;-66
2022/10/12 12:16:09;;;;;;;4.85;0.77;;;19.70;64.60;;;;;;5067324;28;20039;-65
2022/10/12 12:19:13;;;;;;;6.55;1.10;;;19.90;61.70;;;;;;5053588;28;20056;-65
2022/10/12 12:22:14;;;;;;;6.38;0.85;;;20.20;56.40;;;;;;5068039;28;20093;-64
2022/10/12 12:25:09;;;;;;;5.43;0.90;;;20.20;54.20;;;;;;5038454;28;20084;-64
2022/10/12 12:27:43;;;;;;;6.05;0.88;;;20.20;49.80;;;;;;5067693;28;20621;-65
2022/10/12 12:30:18;;;;;;;4.95;0.70;;;20.40;50.30;;;;;;5092569;28;20036;-65
2022/10/12 12:32:47;;;;;;;5.57;1.00;;;20.30;49.40;;;;;;5066774;28;20043;-65
2022/10/12 12:35:34;;;;;;;5.93;0.60;;;20.60;47.90;;;;;;5066431;28;20050;-65
2022/10/12 12:38:12;;;;;;;6.55;1.13;;;20.90;43.60;;;;;;5068103;28;20041;-64
2022/10/12 12:40:39;;;;;;;4.78;0.70;;;20.80;46.60;;;;;;5049837;28;20464;-66
2022/10/12 12:43:20;;;;;;;7.68;0.95;;;20.90;44.00;;;;;;5048054;28;20036;-64
2022/10/12 12:45:59;;;;;;;5.97;0.60;;;21.00;45.80;;;;;;5064716;28;20130;-65
2022/10/12 12:48:40;;;;;;;8.57;0.98;;;21.40;46.00;;;;;;5067925;28;20189;-64
2022/10/12 12:51:36;;;;;;;6.07;1.00;;;21.20;43.40;;;;;;5052564;28;20459;-67
2022/10/12 12:54:12;;;;;;;8.25;1.05;;;21.00;42.80;;;;;;5050755;28;20047;-66
2022/10/12 12:56:44;;;;;;;6.43;1.30;;;20.80;41.90;;;;;;5065696;28;20109;-65
2022/10/12 12:59:29;;;;;;;6.40;0.70;;;20.70;43.40;;;;;;5036756;28;20143;-63